KIND

Indianapolis International Airport

Airport
ICAO code
KIND
Summary
ICAO Region
NAM
ICAO Territory
Location

Indianapolis, Indiana,

Coordinates
39° 42' 54" N , 86° 17' 46" W
KCC
Airport LOS
Parallel Runway Operation
Airport WX
Cumulonimbus
Metar
Observation
KIND 070654Z 01012KT 10SM BKN070 14/08 A3013 RMK AO2 SLP199 T01390078
Station
Indianapolis, Indianapolis International Airport
Date/Time
2022-10-07 06:54:00
Wind direction
10°
Wind speed
12 kts
Lowest cloud amount
broken clouds
Temperature
13.9°C
Dew point
7.8°C
Humidity
66%
Weather condition
n/a

Description

Indianapolis International Airport is a public airport located 11 km southwest of the central business district of Indianapolis, a city in Marion County, Indiana.

Climatology

Humid continental climate (Köppen climate classification Dfa) - characterized by four seasons: cold, windy, snowy winters, mild springs, hot, humid summers, and crisp and relatively short autumns. Precipitation reaches its lowest in January and February and peaks in summer and latter half of spring.

Airport map

Aerial View

SKYbrary Partners:

Safety knowledge contributed by: